sensor_id;sensor_type;location;lat;lon;timestamp;pressure;altitude;pressure_sealevel;temperature;humidity
34658;BME280;20865;43.312;27.152;2022-11-03T00:01:48;100896.25;;;18.32;33.88
34658;BME280;20865;43.312;27.152;2022-11-03T00:04:20;100905.72;;;18.32;34.04
34658;BME280;20865;43.312;27.152;2022-11-03T00:06:53;100900.41;;;18.31;33.95
34658;BME280;20865;43.312;27.152;2022-11-03T00:09:22;100904.69;;;18.35;33.95
34658;BME280;20865;43.312;27.152;2022-11-03T00:11:51;100906.81;;;18.37;33.85
34658;BME280;20865;43.312;27.152;2022-11-03T00:14:18;100913.35;;;18.33;34.00
34658;BME280;20865;43.312;27.152;2022-11-03T00:16:47;100915.13;;;18.34;33.97
34658;BME280;20865;43.312;27.152;2022-11-03T00:19:14;100916.86;;;18.35;33.98
34658;BME280;20865;43.312;27.152;2022-11-03T00:21:42;100919.08;;;18.36;33.93
34658;BME280;20865;43.312;27.152;2022-11-03T00:24:11;100917.83;;;18.34;33.97
34658;BME280;20865;43.312;27.152;2022-11-03T00:26:39;100918.86;;;18.31;34.03
34658;BME280;20865;43.312;27.152;2022-11-03T00:29:09;100915.13;;;18.34;34.18
34658;BME280;20865;43.312;27.152;2022-11-03T00:31:39;100918.60;;;18.36;34.10
34658;BME280;20865;43.312;27.152;2022-11-03T00:34:08;100924.98;;;18.35;34.15
34658;BME280;20865;43.312;27.152;2022-11-03T00:36:45;100924.59;;;18.34;34.04
34658;BME280;20865;43.312;27.152;2022-11-03T00:39:10;100922.75;;;18.35;34.04
34658;BME280;20865;43.312;27.152;2022-11-03T00:41:38;100930.87;;;18.35;34.05
34658;BME280;20865;43.312;27.152;2022-11-03T00:44:06;100921.15;;;18.39;34.12
34658;BME280;20865;43.312;27.152;2022-11-03T00:46:35;100917.26;;;18.45;33.98
34658;BME280;20865;43.312;27.152;2022-11-03T00:49:04;100926.53;;;18.48;34.13
34658;BME280;20865;43.312;27.152;2022-11-03T00:51:32;100932.75;;;18.50;34.06
34658;BME280;20865;43.312;27.152;2022-11-03T00:54:04;100930.59;;;18.56;33.88
34658;BME280;20865;43.312;27.152;2022-11-03T00:56:38;100930.50;;;18.58;33.67
34658;BME280;20865;43.312;27.152;2022-11-03T00:59:07;100938.55;;;18.51;33.61
34658;BME280;20865;43.312;27.152;2022-11-03T01:01:42;100943.95;;;18.51;33.68
34658;BME280;20865;43.312;27.152;2022-11-03T01:04:10;100936.48;;;18.47;33.71
34658;BME280;20865;43.312;27.152;2022-11-03T01:06:57;100932.20;;;18.43;33.74
34658;BME280;20865;43.312;27.152;2022-11-03T01:09:33;100931.42;;;18.41;33.87
34658;BME280;20865;43.312;27.152;2022-11-03T01:12:07;100933.70;;;18.40;34.05
34658;BME280;20865;43.312;27.152;2022-11-03T01:14:43;100940.24;;;18.36;34.09
34658;BME280;20865;43.312;27.152;2022-11-03T01:17:14;100936.82;;;18.32;33.98
34658;BME280;20865;43.312;27.152;2022-11-03T01:19:42;100929.50;;;18.26;33.87
34658;BME280;20865;43.312;27.152;2022-11-03T01:22:11;100926.73;;;18.27;33.94
34658;BME280;20865;43.312;27.152;2022-11-03T01:24:39;100921.70;;;18.20;34.12
34658;BME280;20865;43.312;27.152;2022-11-03T01:27:09;100933.09;;;18.18;33.92
34658;BME280;20865;43.312;27.152;2022-11-03T01:29:39;100924.09;;;18.08;34.00
34658;BME280;20865;43.312;27.152;2022-11-03T01:32:07;100927.20;;;18.01;34.18
34658;BME280;20865;43.312;27.152;2022-11-03T01:34:35;100924.59;;;17.99;34.34
34658;BME280;20865;43.312;27.152;2022-11-03T01:37:03;100925.67;;;17.95;34.53
34658;BME280;20865;43.312;27.152;2022-11-03T01:39:31;100928.55;;;17.92;34.42
34658;BME280;20865;43.312;27.152;2022-11-03T01:41:58;100932.67;;;17.91;34.47
34658;BME280;20865;43.312;27.152;2022-11-03T01:44:29;100933.15;;;17.90;34.54
34658;BME280;20865;43.312;27.152;2022-11-03T01:47:12;100929.88;;;17.83;34.48
34658;BME280;20865;43.312;27.152;2022-11-03T01:49:58;100925.20;;;17.78;34.41
34658;BME280;20865;43.312;27.152;2022-11-03T01:52:28;100933.36;;;17.77;34.46
34658;BME280;20865;43.312;27.152;2022-11-03T01:54:58;100954.11;;;17.76;34.55
34658;BME280;20865;43.312;27.152;2022-11-03T01:57:31;100954.98;;;17.77;34.78
34658;BME280;20865;43.312;27.152;2022-11-03T01:59:57;100954.16;;;17.75;34.73
34658;BME280;20865;43.312;27.152;2022-11-03T02:02:26;100963.20;;;17.74;35.17
34658;BME280;20865;43.312;27.152;2022-11-03T02:04:55;100960.50;;;17.74;34.99
34658;BME280;20865;43.312;27.152;2022-11-03T02:07:28;100968.75;;;17.71;34.93
34658;BME280;20865;43.312;27.152;2022-11-03T02:09:55;100967.01;;;17.70;35.02
34658;BME280;20865;43.312;27.152;2022-11-03T02:12:22;100972.75;;;17.72;35.14
34658;BME280;20865;43.312;27.152;2022-11-03T02:14:59;100981.81;;;17.71;35.37
34658;BME280;20865;43.312;27.152;2022-11-03T02:17:28;100985.05;;;17.69;35.49
34658;BME280;20865;43.312;27.152;2022-11-03T02:20:02;100987.46;;;17.75;35.56
34658;BME280;20865;43.312;27.152;2022-11-03T02:28:04;100980.27;;;17.76;35.73
34658;BME280;20865;43.312;27.152;2022-11-03T02:30:37;100977.08;;;17.76;35.65
34658;BME280;20865;43.312;27.152;2022-11-03T02:33:11;100981.88;;;17.70;35.85
34658;BME280;20865;43.312;27.152;2022-11-03T02:35:51;100982.98;;;17.74;36.01
34658;BME280;20865;43.312;27.152;2022-11-03T02:38:20;100982.06;;;17.75;36.17
34658;BME280;20865;43.312;27.152;2022-11-03T02:40:53;100983.89;;;17.75;36.39
34658;BME280;20865;43.312;27.152;2022-11-03T02:43:23;100979.56;;;17.71;36.36
34658;BME280;20865;43.312;27.152;2022-11-03T02:45:52;100979.24;;;17.78;36.17
34658;BME280;20865;43.312;27.152;2022-11-03T02:48:22;100981.33;;;17.72;36.27
34658;BME280;20865;43.312;27.152;2022-11-03T02:50:49;100988.48;;;17.73;36.19
34658;BME280;20865;43.312;27.152;2022-11-03T02:53:17;100990.79;;;17.72;35.78
34658;BME280;20865;43.312;27.152;2022-11-03T02:55:55;101002.38;;;17.74;35.49
34658;BME280;20865;43.312;27.152;2022-11-03T03:03:59;100984.33;;;17.66;35.28
34658;BME280;20865;43.312;27.152;2022-11-03T03:06:32;100991.77;;;17.60;35.48
34658;BME280;20865;43.312;27.152;2022-11-03T03:09:01;100994.08;;;17.59;35.59
34658;BME280;20865;43.312;27.152;2022-11-03T03:11:29;100989.06;;;17.60;35.62
34658;BME280;20865;43.312;27.152;2022-11-03T03:16:38;100990.78;;;17.53;35.91
34658;BME280;20865;43.312;27.152;2022-11-03T03:19:08;100988.95;;;17.53;36.06
34658;BME280;20865;43.312;27.152;2022-11-03T03:21:41;100996.53;;;17.55;36.06
34658;BME280;20865;43.312;27.152;2022-11-03T03:24:27;100988.42;;;17.55;36.07
34658;BME280;20865;43.312;27.152;2022-11-03T03:26:46;101002.89;;;17.54;36.01
34658;BME280;20865;43.312;27.152;2022-11-03T03:29:28;101003.81;;;17.53;36.15
34658;BME280;20865;43.312;27.152;2022-11-03T03:31:58;101007.22;;;17.48;36.18
34658;BME280;20865;43.312;27.152;2022-11-03T03:34:29;100998.88;;;17.44;36.16
34658;BME280;20865;43.312;27.152;2022-11-03T03:36:58;100998.88;;;17.44;36.03
34658;BME280;20865;43.312;27.152;2022-11-03T03:39:28;100995.50;;;17.39;35.91
34658;BME280;20865;43.312;27.152;2022-11-03T03:41:57;100993.50;;;17.34;35.92
34658;BME280;20865;43.312;27.152;2022-11-03T03:44:26;100992.55;;;17.35;36.13
34658;BME280;20865;43.312;27.152;2022-11-03T03:47:06;100996.87;;;17.29;36.11
34658;BME280;20865;43.312;27.152;2022-11-03T03:49:33;100993.78;;;17.28;35.87
34658;BME280;20865;43.312;27.152;2022-11-03T03:52:01;100997.58;;;17.24;35.79
34658;BME280;20865;43.312;27.152;2022-11-03T03:54:29;100992.18;;;17.24;35.79
34658;BME280;20865;43.312;27.152;2022-11-03T03:57:04;101007.17;;;17.21;35.67
34658;BME280;20865;43.312;27.152;2022-11-03T03:59:33;101005.00;;;17.19;35.97
34658;BME280;20865;43.312;27.152;2022-11-03T04:02:01;101002.05;;;17.14;35.90
34658;BME280;20865;43.312;27.152;2022-11-03T04:04:28;101003.96;;;17.12;36.04
34658;BME280;20865;43.312;27.152;2022-11-03T04:06:56;101012.45;;;17.13;36.21
34658;BME280;20865;43.312;27.152;2022-11-03T04:09:41;101006.80;;;17.09;36.37
34658;BME280;20865;43.312;27.152;2022-11-03T04:12:09;101004.58;;;17.09;36.55
34658;BME280;20865;43.312;27.152;2022-11-03T04:14:54;101003.28;;;17.07;36.80
34658;BME280;20865;43.312;27.152;2022-11-03T04:17:45;101001.14;;;17.05;37.39
34658;BME280;20865;43.312;27.152;2022-11-03T04:20:32;101000.53;;;17.09;37.71
34658;BME280;20865;43.312;27.152;2022-11-03T04:23:18;101004.09;;;17.09;37.67
34658;BME280;20865;43.312;27.152;2022-11-03T04:25:49;100999.57;;;17.10;37.64
34658;BME280;20865;43.312;27.152;2022-11-03T04:28:16;101014.47;;;17.08;37.61
34658;BME280;20865;43.312;27.152;2022-11-03T04:30:44;101016.17;;;17.01;37.70
34658;BME280;20865;43.312;27.152;2022-11-03T04:33:19;101018.95;;;16.99;37.76
34658;BME280;20865;43.312;27.152;2022-11-03T04:35:43;101019.17;;;16.95;37.72
34658;BME280;20865;43.312;27.152;2022-11-03T04:40:46;101022.88;;;16.92;38.03
34658;BME280;20865;43.312;27.152;2022-11-03T04:43:17;101026.80;;;16.95;37.95
34658;BME280;20865;43.312;27.152;2022-11-03T04:45:45;101031.59;;;16.88;37.80
34658;BME280;20865;43.312;27.152;2022-11-03T04:48:18;101032.86;;;16.90;37.41
34658;BME280;20865;43.312;27.152;2022-11-03T04:50:49;101028.67;;;16.93;37.23
34658;BME280;20865;43.312;27.152;2022-11-03T04:53:18;101032.20;;;16.95;37.11
34658;BME280;20865;43.312;27.152;2022-11-03T04:55:48;101034.47;;;16.94;37.23
34658;BME280;20865;43.312;27.152;2022-11-03T04:58:21;101034.47;;;16.94;37.16
34658;BME280;20865;43.312;27.152;2022-11-03T05:00:51;101043.47;;;16.95;37.25
34658;BME280;20865;43.312;27.152;2022-11-03T05:03:24;101049.31;;;16.94;37.05
34658;BME280;20865;43.312;27.152;2022-11-03T05:05:52;101051.22;;;16.92;37.05
34658;BME280;20865;43.312;27.152;2022-11-03T05:08:21;101060.66;;;16.92;37.09
34658;BME280;20865;43.312;27.152;2022-11-03T05:10:48;101066.54;;;16.92;37.23
34658;BME280;20865;43.312;27.152;2022-11-03T05:13:22;101062.80;;;16.84;37.44
34658;BME280;20865;43.312;27.152;2022-11-03T05:15:52;101067.89;;;16.81;37.48
34658;BME280;20865;43.312;27.152;2022-11-03T05:18:30;101073.77;;;16.81;37.47
34658;BME280;20865;43.312;27.152;2022-11-03T05:20:58;101075.77;;;17.06;37.13
34658;BME280;20865;43.312;27.152;2022-11-03T05:23:29;101078.58;;;17.53;36.28
34658;BME280;20865;43.312;27.152;2022-11-03T05:25:59;101090.03;;;18.06;35.47
34658;BME280;20865;43.312;27.152;2022-11-03T05:28:42;101082.45;;;18.59;34.45
34658;BME280;20865;43.312;27.152;2022-11-03T05:31:23;101093.84;;;19.09;33.63
34658;BME280;20865;43.312;27.152;2022-11-03T05:33:52;101089.12;;;19.55;33.04
34658;BME280;20865;43.312;27.152;2022-11-03T05:36:22;101089.66;;;19.70;32.30
34658;BME280;20865;43.312;27.152;2022-11-03T05:38:53;101090.67;;;19.76;32.15
34658;BME280;20865;43.312;27.152;2022-11-03T05:41:25;101095.81;;;19.73;32.27
34658;BME280;20865;43.312;27.152;2022-11-03T05:44:01;101104.98;;;19.71;32.38
34658;BME280;20865;43.312;27.152;2022-11-03T05:46:35;101100.98;;;19.69;32.51
34658;BME280;20865;43.312;27.152;2022-11-03T05:49:01;101106.55;;;19.75;32.70
34658;BME280;20865;43.312;27.152;2022-11-03T05:51:31;101110.84;;;19.79;32.66
34658;BME280;20865;43.312;27.152;2022-11-03T05:54:01;101112.17;;;19.88;32.67
34658;BME280;20865;43.312;27.152;2022-11-03T05:56:31;101113.86;;;19.97;32.79
34658;BME280;20865;43.312;27.152;2022-11-03T05:59:00;101124.20;;;20.07;32.68
34658;BME280;20865;43.312;27.152;2022-11-03T06:01:30;101123.14;;;20.25;32.52
34658;BME280;20865;43.312;27.152;2022-11-03T06:04:00;101123.70;;;20.39;32.70
34658;BME280;20865;43.312;27.152;2022-11-03T06:06:34;101131.07;;;20.53;32.52
34658;BME280;20865;43.312;27.152;2022-11-03T06:09:16;101138.05;;;20.73;32.65
34658;BME280;20865;43.312;27.152;2022-11-03T06:11:44;101146.94;;;20.90;32.46
34658;BME280;20865;43.312;27.152;2022-11-03T06:14:21;101150.20;;;21.11;32.57
34658;BME280;20865;43.312;27.152;2022-11-03T06:16:56;101157.89;;;21.26;32.72
34658;BME280;20865;43.312;27.152;2022-11-03T06:19:45;101155.72;;;21.40;32.37
34658;BME280;20865;43.312;27.152;2022-11-03T06:22:25;101170.11;;;21.56;32.63
34658;BME280;20865;43.312;27.152;2022-11-03T06:24:55;101168.68;;;21.79;32.59
34658;BME280;20865;43.312;27.152;2022-11-03T06:27:24;101167.02;;;21.91;32.71
34658;BME280;20865;43.312;27.152;2022-11-03T06:29:58;101166.21;;;22.03;32.74
34658;BME280;20865;43.312;27.152;2022-11-03T06:32:26;101171.89;;;22.15;32.72
34658;BME280;20865;43.312;27.152;2022-11-03T06:34:58;101164.95;;;22.30;32.58
34658;BME280;20865;43.312;27.152;2022-11-03T06:37:31;101173.68;;;22.43;32.31
34658;BME280;20865;43.312;27.152;2022-11-03T06:42:31;101160.57;;;22.62;32.51
34658;BME280;20865;43.312;27.152;2022-11-03T06:45:01;101162.52;;;22.67;32.58
34658;BME280;20865;43.312;27.152;2022-11-03T06:47:32;101166.40;;;22.70;32.62
34658;BME280;20865;43.312;27.152;2022-11-03T06:49:59;101167.95;;;22.87;32.46
34658;BME280;20865;43.312;27.152;2022-11-03T06:52:29;101168.91;;;23.00;32.51
34658;BME280;20865;43.312;27.152;2022-11-03T06:57:41;101165.97;;;23.23;32.64
34658;BME280;20865;43.312;27.152;2022-11-03T07:00:23;101168.97;;;23.39;32.44
34658;BME280;20865;43.312;27.152;2022-11-03T07:05:38;101169.80;;;23.59;32.23
34658;BME280;20865;43.312;27.152;2022-11-03T07:08:24;101173.06;;;23.71;32.07
34658;BME280;20865;43.312;27.152;2022-11-03T07:13:38;101171.61;;;23.91;31.95
34658;BME280;20865;43.312;27.152;2022-11-03T07:16:15;101173.13;;;24.08;32.07
34658;BME280;20865;43.312;27.152;2022-11-03T07:18:42;101165.30;;;24.09;32.48
34658;BME280;20865;43.312;27.152;2022-11-03T07:23:56;101174.41;;;24.46;32.02
34658;BME280;20865;43.312;27.152;2022-11-03T07:26:26;101170.37;;;24.52;32.45
34658;BME280;20865;43.312;27.152;2022-11-03T07:28:54;101175.47;;;24.57;32.55
34658;BME280;20865;43.312;27.152;2022-11-03T07:31:23;101170.19;;;24.66;32.14
34658;BME280;20865;43.312;27.152;2022-11-03T07:33:58;101169.73;;;24.73;32.13
34658;BME280;20865;43.312;27.152;2022-11-03T07:36:27;101165.83;;;24.88;32.16
34658;BME280;20865;43.312;27.152;2022-11-03T07:38:57;101168.83;;;24.96;32.15
34658;BME280;20865;43.312;27.152;2022-11-03T07:41:28;101171.80;;;25.11;32.29
34658;BME280;20865;43.312;27.152;2022-11-03T07:44:00;101168.48;;;25.25;32.38
34658;BME280;20865;43.312;27.152;2022-11-03T07:46:28;101159.20;;;25.38;31.94
34658;BME280;20865;43.312;27.152;2022-11-03T07:48:59;101164.58;;;25.57;31.68
34658;BME280;20865;43.312;27.152;2022-11-03T07:51:33;101160.86;;;25.63;31.69
34658;BME280;20865;43.312;27.152;2022-11-03T07:57:10;101151.91;;;25.78;31.56
34658;BME280;20865;43.312;27.152;2022-11-03T07:59:41;101151.69;;;25.81;31.01
34658;BME280;20865;43.312;27.152;2022-11-03T08:02:30;101159.66;;;25.84;31.20
34658;BME280;20865;43.312;27.152;2022-11-03T08:04:59;101159.75;;;25.94;31.25
34658;BME280;20865;43.312;27.152;2022-11-03T08:07:28;101161.27;;;25.98;31.57
34658;BME280;20865;43.312;27.152;2022-11-03T08:09:56;101157.15;;;26.04;31.20
34658;BME280;20865;43.312;27.152;2022-11-03T08:12:24;101158.50;;;26.21;31.01
34658;BME280;20865;43.312;27.152;2022-11-03T08:14:51;101163.88;;;26.22;31.08
34658;BME280;20865;43.312;27.152;2022-11-03T08:17:19;101158.73;;;26.34;30.93
34658;BME280;20865;43.312;27.152;2022-11-03T08:19:47;101157.22;;;26.42;31.02
34658;BME280;20865;43.312;27.152;2022-11-03T08:22:14;101163.56;;;26.42;30.26
34658;BME280;20865;43.312;27.152;2022-11-03T08:24:42;101154.98;;;26.41;30.74
34658;BME280;20865;43.312;27.152;2022-11-03T08:27:09;101157.36;;;26.57;30.81
34658;BME280;20865;43.312;27.152;2022-11-03T08:29:37;101161.69;;;26.65;30.36
34658;BME280;20865;43.312;27.152;2022-11-03T08:32:05;101156.67;;;26.70;30.32
34658;BME280;20865;43.312;27.152;2022-11-03T08:34:32;101159.20;;;26.62;30.07
34658;BME280;20865;43.312;27.152;2022-11-03T08:37:00;101152.56;;;26.70;30.13
34658;BME280;20865;43.312;27.152;2022-11-03T08:39:28;101149.00;;;26.91;29.70
34658;BME280;20865;43.312;27.152;2022-11-03T08:41:56;101155.24;;;26.87;29.97
34658;BME280;20865;43.312;27.152;2022-11-03T08:44:24;101156.01;;;26.83;29.51
34658;BME280;20865;43.312;27.152;2022-11-03T08:46:52;101155.40;;;26.80;29.77
34658;BME280;20865;43.312;27.152;2022-11-03T08:49:19;101153.62;;;26.90;29.32
34658;BME280;20865;43.312;27.152;2022-11-03T08:51:47;101155.53;;;27.05;29.05
34658;BME280;20865;43.312;27.152;2022-11-03T08:54:14;101153.30;;;27.04;29.68
34658;BME280;20865;43.312;27.152;2022-11-03T08:56:42;101153.92;;;27.14;29.10
34658;BME280;20865;43.312;27.152;2022-11-03T08:59:11;101151.92;;;27.04;28.93
34658;BME280;20865;43.312;27.152;2022-11-03T09:01:39;101153.45;;;26.97;28.79
34658;BME280;20865;43.312;27.152;2022-11-03T09:04:07;101152.02;;;27.08;28.58
34658;BME280;20865;43.312;27.152;2022-11-03T09:06:34;101142.09;;;27.13;28.68
34658;BME280;20865;43.312;27.152;2022-11-03T09:09:02;101143.66;;;27.16;28.73
34658;BME280;20865;43.312;27.152;2022-11-03T09:11:29;101141.84;;;27.31;28.64
34658;BME280;20865;43.312;27.152;2022-11-03T09:13:57;101138.91;;;27.23;28.42
34658;BME280;20865;43.312;27.152;2022-11-03T09:16:25;101136.27;;;27.27;27.32
34658;BME280;20865;43.312;27.152;2022-11-03T09:18:52;101129.43;;;27.22;27.73
34658;BME280;20865;43.312;27.152;2022-11-03T09:21:20;101126.65;;;27.48;27.25
34658;BME280;20865;43.312;27.152;2022-11-03T09:23:47;101121.09;;;27.54;27.21
34658;BME280;20865;43.312;27.152;2022-11-03T09:26:15;101120.62;;;27.70;27.04
34658;BME280;20865;43.312;27.152;2022-11-03T09:28:43;101127.33;;;27.77;27.16
34658;BME280;20865;43.312;27.152;2022-11-03T09:31:11;101116.86;;;27.71;26.99
34658;BME280;20865;43.312;27.152;2022-11-03T09:33:38;101106.31;;;27.82;26.54
34658;BME280;20865;43.312;27.152;2022-11-03T09:36:07;101106.31;;;27.82;26.54
34658;BME280;20865;43.312;27.152;2022-11-03T09:38:34;101109.26;;;27.90;26.27
34658;BME280;20865;43.312;27.152;2022-11-03T09:41:03;101107.14;;;27.88;26.38
34658;BME280;20865;43.312;27.152;2022-11-03T09:43:32;101101.77;;;28.01;26.29
34658;BME280;20865;43.312;27.152;2022-11-03T09:45:59;101098.59;;;27.96;26.74
34658;BME280;20865;43.312;27.152;2022-11-03T09:48:28;101102.71;;;27.96;26.55
34658;BME280;20865;43.312;27.152;2022-11-03T09:50:56;101100.32;;;27.97;26.27
34658;BME280;20865;43.312;27.152;2022-11-03T09:53:26;101097.38;;;27.89;26.70
34658;BME280;20865;43.312;27.152;2022-11-03T09:55:54;101099.66;;;27.90;26.43
34658;BME280;20865;43.312;27.152;2022-11-03T09:58:22;101103.06;;;27.97;26.43
34658;BME280;20865;43.312;27.152;2022-11-03T10:00:49;101092.39;;;28.04;26.27
34658;BME280;20865;43.312;27.152;2022-11-03T10:03:17;101090.36;;;28.06;26.47
34658;BME280;20865;43.312;27.152;2022-11-03T10:05:46;101088.13;;;28.06;26.38
34658;BME280;20865;43.312;27.152;2022-11-03T10:08:22;101086.52;;;28.03;26.28
34658;BME280;20865;43.312;27.152;2022-11-03T10:10:51;101085.09;;;28.09;26.60
34658;BME280;20865;43.312;27.152;2022-11-03T10:13:45;101079.68;;;28.13;26.77
34658;BME280;20865;43.312;27.152;2022-11-03T10:16:14;101070.34;;;28.10;26.69
34658;BME280;20865;43.312;27.152;2022-11-03T10:18:43;101076.42;;;28.13;26.67
34658;BME280;20865;43.312;27.152;2022-11-03T10:21:23;101066.23;;;28.10;26.72
34658;BME280;20865;43.312;27.152;2022-11-03T10:23:50;101072.61;;;28.20;26.66
34658;BME280;20865;43.312;27.152;2022-11-03T10:26:19;101068.98;;;28.10;26.53
34658;BME280;20865;43.312;27.152;2022-11-03T10:29:00;101061.22;;;27.99;26.47
34658;BME280;20865;43.312;27.152;2022-11-03T10:31:34;101056.42;;;28.07;26.47
34658;BME280;20865;43.312;27.152;2022-11-03T10:34:03;101048.53;;;28.08;26.31
34658;BME280;20865;43.312;27.152;2022-11-03T10:36:32;101043.26;;;27.86;26.64
34658;BME280;20865;43.312;27.152;2022-11-03T10:39:21;101034.78;;;27.98;26.47
34658;BME280;20865;43.312;27.152;2022-11-03T10:41:31;101040.15;;;28.00;26.65
34658;BME280;20865;43.312;27.152;2022-11-03T10:47:04;101028.06;;;28.07;26.87
34658;BME280;20865;43.312;27.152;2022-11-03T10:49:14;101035.81;;;28.17;26.25
34658;BME280;20865;43.312;27.152;2022-11-03T10:51:46;101026.11;;;28.03;26.43
34658;BME280;20865;43.312;27.152;2022-11-03T10:54:15;101020.91;;;27.90;26.49
34658;BME280;20865;43.312;27.152;2022-11-03T10:56:45;101019.53;;;27.90;26.74
34658;BME280;20865;43.312;27.152;2022-11-03T10:59:22;101012.81;;;27.98;26.65
34658;BME280;20865;43.312;27.152;2022-11-03T11:01:50;101006.67;;;27.91;26.57
34658;BME280;20865;43.312;27.152;2022-11-03T11:04:19;100998.23;;;27.98;26.33
34658;BME280;20865;43.312;27.152;2022-11-03T11:06:47;100998.20;;;27.88;26.33
34658;BME280;20865;43.312;27.152;2022-11-03T11:09:25;100993.17;;;27.93;26.47
34658;BME280;20865;43.312;27.152;2022-11-03T11:12:15;100994.41;;;28.05;26.17
34658;BME280;20865;43.312;27.152;2022-11-03T11:14:36;100988.70;;;28.12;26.30
34658;BME280;20865;43.312;27.152;2022-11-03T11:17:04;100976.64;;;28.18;26.22
34658;BME280;20865;43.312;27.152;2022-11-03T11:22:21;100975.69;;;28.23;25.91
34658;BME280;20865;43.312;27.152;2022-11-03T11:41:11;100960.95;;;28.05;26.11
34658;BME280;20865;43.312;27.152;2022-11-03T11:43:38;100960.95;;;28.05;26.11
34658;BME280;20865;43.312;27.152;2022-11-03T11:51:38;100955.02;;;28.19;25.50
34658;BME280;20865;43.312;27.152;2022-11-03T11:54:15;100949.18;;;28.18;25.11
34658;BME280;20865;43.312;27.152;2022-11-03T11:56:47;100949.18;;;28.18;25.29
34658;BME280;20865;43.312;27.152;2022-11-03T11:59:18;100951.13;;;28.22;25.39
34658;BME280;20865;43.312;27.152;2022-11-03T12:01:48;100948.73;;;28.13;25.20
34658;BME280;20865;43.312;27.152;2022-11-03T12:04:22;100940.37;;;28.15;25.03
34658;BME280;20865;43.312;27.152;2022-11-03T12:06:50;100933.84;;;28.06;25.03
34658;BME280;20865;43.312;27.152;2022-11-03T12:09:25;100929.61;;;27.73;25.63
34658;BME280;20865;43.312;27.152;2022-11-03T12:11:50;100929.61;;;27.73;25.63
34658;BME280;20865;43.312;27.152;2022-11-03T12:14:38;100937.83;;;27.38;25.64
34658;BME280;20865;43.312;27.152;2022-11-03T12:19:53;100930.45;;;27.39;25.76
34658;BME280;20865;43.312;27.152;2022-11-03T12:29:58;100918.27;;;27.47;25.42
34658;BME280;20865;43.312;27.152;2022-11-03T12:32:26;100917.23;;;27.63;25.66
34658;BME280;20865;43.312;27.152;2022-11-03T12:34:54;100919.42;;;27.69;25.47
34658;BME280;20865;43.312;27.152;2022-11-03T12:37:22;100913.47;;;27.64;25.48
34658;BME280;20865;43.312;27.152;2022-11-03T12:39:50;100912.56;;;27.69;25.46
34658;BME280;20865;43.312;27.152;2022-11-03T12:42:17;100913.34;;;27.66;25.48
34658;BME280;20865;43.312;27.152;2022-11-03T12:44:46;100913.84;;;27.75;25.38
34658;BME280;20865;43.312;27.152;2022-11-03T12:47:14;100909.23;;;27.66;25.27
34658;BME280;20865;43.312;27.152;2022-11-03T12:49:41;100907.78;;;27.62;25.41
34658;BME280;20865;43.312;27.152;2022-11-03T12:52:09;100897.87;;;27.65;25.35
34658;BME280;20865;43.312;27.152;2022-11-03T12:54:36;100899.66;;;27.50;25.42
34658;BME280;20865;43.312;27.152;2022-11-03T12:57:05;100897.77;;;27.41;25.74
34658;BME280;20865;43.312;27.152;2022-11-03T12:59:32;100905.54;;;27.36;25.70
34658;BME280;20865;43.312;27.152;2022-11-03T13:02:00;100898.37;;;27.29;25.86
34658;BME280;20865;43.312;27.152;2022-11-03T13:04:28;100896.17;;;27.08;25.91
34658;BME280;20865;43.312;27.152;2022-11-03T13:06:55;100894.53;;;27.26;25.86
34658;BME280;20865;43.312;27.152;2022-11-03T13:09:23;100897.39;;;27.30;25.82
34658;BME280;20865;43.312;27.152;2022-11-03T13:11:50;100892.48;;;26.88;26.17
34658;BME280;20865;43.312;27.152;2022-11-03T13:14:36;100890.46;;;27.05;26.08
34658;BME280;20865;43.312;27.152;2022-11-03T13:17:04;100887.83;;;26.94;26.28
34658;BME280;20865;43.312;27.152;2022-11-03T13:19:31;100885.08;;;26.94;26.34
34658;BME280;20865;43.312;27.152;2022-11-03T13:21:59;100886.23;;;27.07;26.22
34658;BME280;20865;43.312;27.152;2022-11-03T13:24:27;100892.06;;;27.14;26.04
34658;BME280;20865;43.312;27.152;2022-11-03T13:26:55;100883.41;;;27.03;26.19
34658;BME280;20865;43.312;27.152;2022-11-03T13:29:22;100883.21;;;27.10;26.15
34658;BME280;20865;43.312;27.152;2022-11-03T13:31:50;100889.91;;;27.17;25.98
34658;BME280;20865;43.312;27.152;2022-11-03T13:34:17;100894.88;;;27.18;25.92
34658;BME280;20865;43.312;27.152;2022-11-03T13:36:45;100881.33;;;27.11;26.16
34658;BME280;20865;43.312;27.152;2022-11-03T13:39:13;100889.44;;;27.12;26.31
34658;BME280;20865;43.312;27.152;2022-11-03T13:41:40;100886.64;;;26.87;26.60
34658;BME280;20865;43.312;27.152;2022-11-03T13:44:08;100889.73;;;26.88;26.68
34658;BME280;20865;43.312;27.152;2022-11-03T13:46:36;100881.80;;;27.00;26.60
34658;BME280;20865;43.312;27.152;2022-11-03T13:49:03;100893.36;;;27.04;26.39
34658;BME280;20865;43.312;27.152;2022-11-03T13:51:31;100886.27;;;27.01;26.38
34658;BME280;20865;43.312;27.152;2022-11-03T13:53:59;100882.62;;;27.06;26.53
34658;BME280;20865;43.312;27.152;2022-11-03T13:56:26;100884.12;;;27.05;26.47
34658;BME280;20865;43.312;27.152;2022-11-03T13:58:54;100886.66;;;27.02;26.59
34658;BME280;20865;43.312;27.152;2022-11-03T14:01:22;100887.91;;;26.98;26.61
34658;BME280;20865;43.312;27.152;2022-11-03T14:03:49;100882.62;;;26.91;26.49
34658;BME280;20865;43.312;27.152;2022-11-03T14:06:17;100884.03;;;27.01;26.62
34658;BME280;20865;43.312;27.152;2022-11-03T14:08:45;100880.53;;;26.89;26.61